Time;durP1;ratioP1;P1;durP2;ratioP2;P2;SDS_P1;SDS_P2;PMS_P1;PMS_P2;Temp;Humidity;BMP_temperature;BMP_pressure;BME280_temperature;BME280_humidity;BME280_pressure;Samples;Min_cycle;Max_cycle;Signal;HPM_P1;HPM_P2
2023/01/10 00:01:46;;;;;;;;;;;6.80;99.90;;;;;;5078230;28;20053;-67
2023/01/10 00:04:11;;;;;;;;;;;6.90;99.90;;;;;;5080013;28;19999;-67
2023/01/10 00:06:37;;;;;;;;;;;6.90;99.90;;;;;;5061908;28;19904;-67
2023/01/10 00:09:02;;;;;;;;;;;6.80;99.90;;;;;;5078114;28;19909;-68
2023/01/10 00:14:12;;;;;;;;;;;7.00;99.90;;;;;;5076339;28;19966;-67
2023/01/10 00:16:38;;;;;;;;;;;7.00;99.90;;;;;;5076161;28;19904;-68
2023/01/10 00:19:04;;;;;;;;;;;7.00;99.90;;;;;;5075966;28;19904;-68
2023/01/10 00:21:29;;;;;;;;;;;6.90;99.90;;;;;;5075784;28;19904;-67
2023/01/10 00:23:58;;;;;;;;;;;6.80;99.90;;;;;;5076123;28;20004;-67
2023/01/10 00:26:24;;;;;;;;;;;6.80;99.90;;;;;;5076229;28;19904;-68
2023/01/10 00:28:50;;;;;;;;;;;6.80;99.90;;;;;;5075631;28;20062;-67
2023/01/10 00:31:15;;;;;;;;;;;6.80;99.90;;;;;;5075898;28;19905;-67
2023/01/10 00:33:41;;;;;;;;;;;6.80;99.90;;;;;;5075799;28;19912;-67
2023/01/10 00:36:07;;;;;;;;;;;6.90;99.90;;;;;;5075585;28;19911;-69
2023/01/10 00:38:33;;;;;;;;;;;6.80;99.90;;;;;;5075395;28;19905;-68
2023/01/10 00:40:59;;;;;;;;;;;6.80;99.90;;;;;;5057258;28;20349;-68
2023/01/10 00:46:09;;;;;;;;;;;6.80;99.90;;;;;;5075536;28;19911;-68
2023/01/10 00:48:35;;;;;;;;;;;6.80;99.90;;;;;;5075340;28;19908;-68
2023/01/10 00:51:00;;;;;;;;;;;6.90;99.90;;;;;;5075368;28;19908;-68
2023/01/10 00:53:26;;;;;;;;;;;6.90;99.90;;;;;;5074949;28;19905;-67
2023/01/10 00:55:52;;;;;;;;;;;6.90;99.90;;;;;;5075728;28;19904;-67
2023/01/10 00:58:18;;;;;;;;;;;7.00;99.90;;;;;;5057663;28;19932;-67
2023/01/10 01:00:48;;;;;;;;;;;7.00;99.90;;;;;;5075499;28;19904;-67
2023/01/10 01:03:14;;;;;;;;;;;7.10;99.90;;;;;;5075510;28;20352;-68
2023/01/10 01:05:43;;;;;;;;;;;7.10;99.90;;;;;;5057221;28;19904;-67
2023/01/10 01:08:09;;;;;;;;;;;7.10;99.90;;;;;;5075271;28;20299;-68
2023/01/10 01:10:35;;;;;;;;;;;7.10;99.90;;;;;;5075255;28;19905;-67
2023/01/10 01:13:07;;;;;;;;;;;7.10;99.90;;;;;;5074758;28;20402;-68
2023/01/10 01:15:34;;;;;;;;;;;7.00;99.90;;;;;;5074991;28;19904;-68
2023/01/10 01:17:59;;;;;;;;;;;7.00;99.90;;;;;;5074872;28;19904;-67
2023/01/10 01:20:25;;;;;;;;;;;7.00;99.90;;;;;;5074862;28;19931;-67
2023/01/10 01:22:50;;;;;;;;;;;7.10;99.90;;;;;;5074735;28;19973;-67
2023/01/10 01:25:16;;;;;;;;;;;7.10;99.90;;;;;;5074958;28;19935;-67
2023/01/10 01:27:41;;;;;;;;;;;7.10;99.90;;;;;;5074406;28;20269;-68
2023/01/10 01:30:08;;;;;;;;;;;7.00;99.90;;;;;;5074751;28;20007;-67
2023/01/10 01:32:33;;;;;;;;;;;7.00;99.90;;;;;;5055622;28;19909;-68
2023/01/10 01:34:59;;;;;;;;;;;7.00;99.90;;;;;;5075882;28;19904;-68
2023/01/10 01:37:24;;;;;;;;;;;7.00;99.90;;;;;;5077199;28;19938;-68
2023/01/10 01:39:50;;;;;;;;;;;7.00;99.90;;;;;;5077782;28;19919;-68
2023/01/10 01:42:20;;;;;;;;;;;7.00;99.90;;;;;;5076475;28;19927;-68
2023/01/10 01:45:05;;;;;;;;;;;7.10;99.90;;;;;;5077652;28;19904;-68
2023/01/10 01:47:31;;;;;;;;;;;7.10;99.90;;;;;;5076815;28;19958;-67
2023/01/10 01:49:57;;;;;;;;;;;7.00;99.90;;;;;;5077054;28;19908;-67
2023/01/10 01:52:26;;;;;;;;;;;7.00;99.90;;;;;;5075959;28;19904;-67
2023/01/10 01:54:55;;;;;;;;;;;7.00;99.90;;;;;;5075795;28;19904;-68
2023/01/10 01:57:23;;;;;;;;;;;7.00;99.90;;;;;;5076036;28;19909;-68
2023/01/10 01:59:51;;;;;;;;;;;7.00;99.90;;;;;;5076688;28;19943;-68
2023/01/10 02:02:24;;;;;;;;;;;7.10;99.90;;;;;;5076341;28;19904;-67
2023/01/10 02:04:56;;;;;;;;;;;7.00;99.90;;;;;;5074949;28;19970;-67
2023/01/10 02:07:22;;;;;;;;;;;7.10;99.90;;;;;;5056809;28;19916;-67
2023/01/10 02:09:53;;;;;;;;;;;7.00;99.90;;;;;;5074650;28;19908;-67
2023/01/10 02:12:18;;;;;;;;;;;7.10;99.90;;;;;;5057067;28;19912;-67
2023/01/10 02:14:44;;;;;;;;;;;7.10;99.90;;;;;;5074545;28;19904;-67
2023/01/10 02:17:10;;;;;;;;;;;7.00;99.90;;;;;;5074551;28;19911;-67
2023/01/10 02:19:49;;;;;;;;;;;7.00;99.90;;;;;;5074425;28;19905;-67
2023/01/10 02:22:21;;;;;;;;;;;7.10;99.90;;;;;;5056266;28;19912;-67
2023/01/10 02:25:10;;;;;;;;;;;7.10;99.90;;;;;;5075563;28;19905;-67
2023/01/10 02:27:42;;;;;;;;;;;7.10;99.90;;;;;;5074690;28;19904;-67
2023/01/10 02:30:13;;;;;;;;;;;7.00;99.90;;;;;;5055928;28;19908;-67
2023/01/10 02:32:59;;;;;;;;;;;7.00;99.90;;;;;;5073793;28;19978;-67
2023/01/10 02:35:30;;;;;;;;;;;6.90;99.90;;;;;;5074141;28;20246;-67
2023/01/10 02:38:08;;;;;;;;;;;6.80;99.90;;;;;;5073648;28;19935;-68
2023/01/10 02:40:43;;;;;;;;;;;6.90;99.90;;;;;;5074136;28;20245;-68
2023/01/10 02:43:12;;;;;;;;;;;6.90;99.90;;;;;;5073398;28;19904;-67
2023/01/10 02:45:40;;;;;;;;;;;6.90;99.90;;;;;;5073831;28;20113;-68
2023/01/10 02:48:05;;;;;;;;;;;6.90;99.90;;;;;;5073764;28;20007;-68
2023/01/10 02:50:40;;;;;;;;;;;6.90;99.90;;;;;;5073815;28;19943;-68
2023/01/10 02:53:15;;;;;;;;;;;6.90;99.90;;;;;;5055659;28;19912;-69
2023/01/10 02:55:46;;;;;;;;;;;6.90;99.90;;;;;;5073695;28;19908;-67
2023/01/10 02:58:15;;;;;;;;;;;6.90;99.90;;;;;;5055587;28;19940;-67
2023/01/10 03:00:52;;;;;;;;;;;6.80;99.90;;;;;;5073764;28;19998;-66
2023/01/10 03:03:26;;;;;;;;;;;6.70;99.90;;;;;;5073559;28;20276;-68
2023/01/10 03:06:06;;;;;;;;;;;6.70;99.90;;;;;;5073662;28;19905;-68
2023/01/10 03:08:38;;;;;;;;;;;6.50;99.90;;;;;;5073625;28;19912;-68
2023/01/10 03:11:05;;;;;;;;;;;6.50;99.90;;;;;;5073629;28;19905;-67
2023/01/10 03:13:30;;;;;;;;;;;6.50;99.90;;;;;;5073021;28;19911;-68
2023/01/10 03:15:56;;;;;;;;;;;6.50;99.90;;;;;;5073238;28;19999;-68
2023/01/10 03:18:25;;;;;;;;;;;6.40;99.90;;;;;;5073320;28;19908;-68
2023/01/10 03:20:51;;;;;;;;;;;6.40;99.90;;;;;;5073743;28;20454;-68
2023/01/10 03:23:17;;;;;;;;;;;6.40;99.90;;;;;;5073159;28;19904;-67
2023/01/10 03:25:43;;;;;;;;;;;6.40;99.90;;;;;;5055221;28;20307;-68
2023/01/10 03:28:14;;;;;;;;;;;6.40;99.90;;;;;;5072830;28;20372;-67
2023/01/10 03:30:58;;;;;;;;;;;6.40;99.90;;;;;;5073059;28;19908;-67
2023/01/10 03:33:26;;;;;;;;;;;6.30;99.90;;;;;;5073046;28;19920;-68
2023/01/10 03:35:56;;;;;;;;;;;6.30;99.90;;;;;;5073048;28;19904;-68
2023/01/10 03:38:24;;;;;;;;;;;6.20;99.90;;;;;;5072963;28;19905;-67
2023/01/10 03:41:06;;;;;;;;;;;6.20;99.90;;;;;;5055079;28;20319;-67
2023/01/10 03:46:27;;;;;;;;;;;6.30;99.90;;;;;;5073381;28;19958;-67
2023/01/10 03:48:53;;;;;;;;;;;6.20;99.90;;;;;;5073273;28;19913;-67
2023/01/10 03:51:19;;;;;;;;;;;6.20;99.90;;;;;;5073361;28;19904;-67
2023/01/10 03:53:45;;;;;;;;;;;6.30;99.90;;;;;;5073565;28;20294;-67
2023/01/10 03:56:13;;;;;;;;;;;6.40;99.90;;;;;;5075181;28;19994;-68
2023/01/10 03:58:39;;;;;;;;;;;6.50;99.90;;;;;;5058592;28;19904;-68
2023/01/10 04:01:04;;;;;;;;;;;6.50;99.90;;;;;;5058659;28;19904;-68
2023/01/10 04:03:30;;;;;;;;;;;6.60;99.90;;;;;;5076363;28;19911;-68
2023/01/10 04:05:55;;;;;;;;;;;6.60;99.90;;;;;;5076231;28;19999;-67
2023/01/10 04:08:21;;;;;;;;;;;6.60;99.90;;;;;;5058266;28;19934;-67
2023/01/10 04:10:49;;;;;;;;;;;6.70;99.90;;;;;;5076286;28;19904;-67
2023/01/10 04:13:15;;;;;;;;;;;6.70;99.90;;;;;;5058236;28;19959;-67
2023/01/10 04:15:40;;;;;;;;;;;6.70;99.90;;;;;;5076545;28;20002;-68
2023/01/10 04:18:06;;;;;;;;;;;6.70;99.90;;;;;;5076366;28;20296;-68
2023/01/10 04:20:31;;;;;;;;;;;6.70;99.90;;;;;;5076389;28;19974;-68
2023/01/10 04:22:57;;;;;;;;;;;6.80;99.90;;;;;;5076072;28;19912;-68
2023/01/10 04:25:22;;;;;;;;;;;6.70;99.90;;;;;;5076179;28;19904;-67
2023/01/10 04:27:51;;;;;;;;;;;6.80;99.90;;;;;;5075890;28;19999;-67
2023/01/10 04:30:17;;;;;;;;;;;6.70;99.90;;;;;;5075923;28;19908;-66
2023/01/10 04:32:42;;;;;;;;;;;6.80;99.90;;;;;;5075862;28;19958;-68
2023/01/10 04:35:08;;;;;;;;;;;6.80;99.90;;;;;;5075674;28;19954;-68
2023/01/10 04:37:33;;;;;;;;;;;6.60;99.90;;;;;;5058063;28;19926;-68
2023/01/10 04:39:59;;;;;;;;;;;6.60;99.90;;;;;;5075731;28;19904;-67
2023/01/10 04:42:25;;;;;;;;;;;6.60;99.90;;;;;;5057418;28;19905;-68
2023/01/10 04:44:50;;;;;;;;;;;6.60;99.90;;;;;;5075769;28;20103;-67
2023/01/10 04:47:15;;;;;;;;;;;6.60;99.90;;;;;;5076109;28;19958;-67
2023/01/10 04:49:41;;;;;;;;;;;6.60;99.90;;;;;;5075749;28;19924;-67
2023/01/10 04:52:06;;;;;;;;;;;6.50;99.90;;;;;;5057624;28;19927;-67
2023/01/10 04:54:32;;;;;;;;;;;6.60;99.90;;;;;;5075612;28;20293;-67
2023/01/10 04:56:57;;;;;;;;;;;6.50;99.90;;;;;;5075546;28;19954;-67
2023/01/10 04:59:23;;;;;;;;;;;6.50;99.90;;;;;;5075516;28;19952;-68
2023/01/10 05:01:48;;;;;;;;;;;6.60;99.90;;;;;;5077261;28;19904;-68
2023/01/10 05:04:14;;;;;;;;;;;6.60;99.90;;;;;;5077369;28;19904;-67
2023/01/10 05:06:39;;;;;;;;;;;6.60;99.90;;;;;;5076458;28;19904;-67
2023/01/10 05:09:05;;;;;;;;;;;6.50;99.90;;;;;;5057790;28;20003;-67
2023/01/10 05:11:31;;;;;;;;;;;6.60;99.90;;;;;;5076055;28;19999;-67
2023/01/10 05:13:56;;;;;;;;;;;6.60;99.90;;;;;;5057051;28;19947;-68
2023/01/10 05:16:22;;;;;;;;;;;6.60;99.90;;;;;;5056974;28;19905;-68
2023/01/10 05:18:49;;;;;;;;;;;6.50;99.90;;;;;;5075110;28;19905;-68
2023/01/10 05:21:15;;;;;;;;;;;6.60;99.90;;;;;;5074998;28;19926;-68
2023/01/10 05:23:40;;;;;;;;;;;6.60;99.90;;;;;;5074617;28;20428;-68
2023/01/10 05:26:10;;;;;;;;;;;6.60;99.90;;;;;;5074660;28;19915;-68
2023/01/10 05:28:36;;;;;;;;;;;6.60;99.90;;;;;;5074732;28;20007;-68
2023/01/10 05:31:01;;;;;;;;;;;6.50;99.90;;;;;;5061668;28;19988;-67
2023/01/10 05:33:27;;;;;;;;;;;6.50;99.90;;;;;;5078983;23;19923;-73
2023/01/10 05:35:52;;;;;;;;;;;6.50;99.90;;;;;;5050216;28;19908;-69
2023/01/10 05:38:18;;;;;;;;;;;6.60;99.90;;;;;;5053817;28;19912;-71
2023/01/10 05:40:43;;;;;;;;;;;6.60;99.90;;;;;;5033239;28;19909;-69
2023/01/10 05:43:10;;;;;;;;;;;6.60;99.90;;;;;;5047758;28;19905;-69
2023/01/10 05:45:39;;;;;;;;;;;6.50;99.90;;;;;;5046531;28;19905;-69
2023/01/10 05:48:04;;;;;;;;;;;6.60;99.90;;;;;;5036078;28;19908;-71
2023/01/10 05:50:30;;;;;;;;;;;6.50;99.90;;;;;;5017614;28;19928;-70
2023/01/10 05:52:56;;;;;;;;;;;6.40;99.90;;;;;;5038314;28;20007;-70
2023/01/10 05:55:22;;;;;;;;;;;6.50;99.90;;;;;;5022899;28;19912;-70
2023/01/10 05:57:47;;;;;;;;;;;6.60;99.90;;;;;;5043672;28;19905;-69
2023/01/10 06:00:13;;;;;;;;;;;6.70;99.90;;;;;;5047793;28;19921;-70
2023/01/10 06:02:39;;;;;;;;;;;6.70;99.90;;;;;;5033419;28;19905;-71
2023/01/10 06:05:05;;;;;;;;;;;6.80;99.90;;;;;;5024233;28;19970;-74
2023/01/10 06:07:31;;;;;;;;;;;6.80;99.90;;;;;;5054886;28;20505;-74
2023/01/10 06:09:56;;;;;;;;;;;6.80;99.90;;;;;;5056709;28;19966;-73
2023/01/10 06:12:21;;;;;;;;;;;6.70;99.90;;;;;;5056540;28;19904;-71
2023/01/10 06:14:47;;;;;;;;;;;6.80;99.90;;;;;;5056058;28;19908;-70
2023/01/10 06:17:12;;;;;;;;;;;6.70;99.90;;;;;;5058763;28;19911;-71
2023/01/10 06:19:38;;;;;;;;;;;6.70;99.90;;;;;;5045896;28;19912;-71
2023/01/10 06:22:03;;;;;;;;;;;6.70;99.90;;;;;;5066464;28;19905;-71
2023/01/10 06:24:29;;;;;;;;;;;6.70;99.90;;;;;;5047996;28;19905;-72
2023/01/10 06:26:54;;;;;;;;;;;6.70;99.90;;;;;;5038298;28;20332;-72
2023/01/10 06:29:20;;;;;;;;;;;6.70;99.90;;;;;;5054448;28;19971;-71
2023/01/10 06:31:45;;;;;;;;;;;6.70;99.90;;;;;;5054683;28;19904;-71
2023/01/10 06:34:11;;;;;;;;;;;6.70;99.90;;;;;;5036066;28;20327;-71
2023/01/10 06:36:36;;;;;;;;;;;6.80;99.90;;;;;;5054299;28;20360;-71
2023/01/10 06:39:02;;;;;;;;;;;6.80;99.90;;;;;;5054881;28;19984;-72
2023/01/10 06:41:27;;;;;;;;;;;6.60;99.90;;;;;;5037855;28;20333;-72
2023/01/10 06:43:53;;;;;;;;;;;6.60;99.90;;;;;;5054731;28;20357;-73
2023/01/10 06:46:18;;;;;;;;;;;6.60;99.90;;;;;;5053862;28;20409;-71
2023/01/10 06:48:44;;;;;;;;;;;6.70;99.90;;;;;;5035953;28;20448;-72
2023/01/10 06:51:10;;;;;;;;;;;6.70;99.90;;;;;;5052386;28;19911;-71
2023/01/10 06:53:36;;;;;;;;;;;6.70;99.90;;;;;;5053527;28;19999;-71
2023/01/10 06:56:01;;;;;;;;;;;6.70;99.90;;;;;;5035810;28;19911;-71
2023/01/10 06:58:27;;;;;;;;;;;6.80;99.90;;;;;;5053318;28;19905;-72
2023/01/10 07:00:53;;;;;;;;;;;6.80;99.90;;;;;;5039076;28;19950;-72
2023/01/10 07:03:19;;;;;;;;;;;6.70;99.90;;;;;;5032367;28;19905;-72
2023/01/10 07:05:44;;;;;;;;;;;6.60;99.90;;;;;;5042878;28;19920;-65
2023/01/10 07:08:10;;;;;;;;;;;6.50;99.90;;;;;;5054902;28;19962;-72
2023/01/10 07:10:35;;;;;;;;;;;6.40;99.90;;;;;;5035380;28;19908;-71
2023/01/10 07:13:00;;;;;;;;;;;6.40;99.90;;;;;;5035324;28;19905;-67
2023/01/10 07:15:26;;;;;;;;;;;6.40;99.90;;;;;;5025382;28;19905;-67
2023/01/10 07:17:52;;;;;;;;;;;6.40;99.90;;;;;;5032143;28;19962;-67
2023/01/10 07:20:17;;;;;;;;;;;6.60;99.90;;;;;;5014259;28;19912;-69
2023/01/10 07:22:43;;;;;;;;;;;6.60;99.90;;;;;;5035670;28;20266;-72
2023/01/10 07:25:09;;;;;;;;;;;6.70;99.90;;;;;;5053534;28;19912;-71
2023/01/10 07:27:34;;;;;;;;;;;6.70;99.90;;;;;;5053152;28;19915;-72
2023/01/10 07:30:00;;;;;;;;;;;6.80;99.90;;;;;;5052262;28;20543;-73
2023/01/10 07:32:25;;;;;;;;;;;6.80;99.90;;;;;;5056112;28;19905;-70
2023/01/10 07:34:51;;;;;;;;;;;6.70;99.90;;;;;;5055585;28;19913;-72
2023/01/10 07:37:16;;;;;;;;;;;6.80;99.90;;;;;;5056477;28;19905;-71
2023/01/10 07:39:42;;;;;;;;;;;6.80;99.90;;;;;;5056344;28;19904;-72
2023/01/10 07:42:08;;;;;;;;;;;6.70;99.90;;;;;;5056469;28;20001;-72
2023/01/10 07:44:33;;;;;;;;;;;6.60;99.90;;;;;;5038538;28;19952;-71
2023/01/10 07:46:59;;;;;;;;;;;6.60;99.90;;;;;;5039582;28;20416;-73
2023/01/10 07:49:24;;;;;;;;;;;6.60;99.90;;;;;;5039105;28;19912;-72
2023/01/10 07:51:49;;;;;;;;;;;6.60;99.90;;;;;;5039258;28;19905;-72
2023/01/10 07:54:15;;;;;;;;;;;6.60;99.90;;;;;;5039185;28;19962;-72
2023/01/10 07:56:40;;;;;;;;;;;6.70;99.90;;;;;;5057588;28;20341;-70
2023/01/10 07:59:06;;;;;;;;;;;6.70;99.90;;;;;;5056804;28;20357;-70
2023/01/10 08:01:31;;;;;;;;;;;6.70;99.90;;;;;;5056961;28;19905;-71
2023/01/10 08:03:57;;;;;;;;;;;6.70;99.90;;;;;;5056699;28;19909;-72
2023/01/10 08:06:23;;;;;;;;;;;6.70;99.90;;;;;;5056793;28;19912;-72
2023/01/10 08:08:48;;;;;;;;;;;6.80;99.90;;;;;;5056702;28;19908;-72
2023/01/10 08:11:14;;;;;;;;;;;6.80;99.90;;;;;;5057890;28;19927;-72
2023/01/10 08:13:39;;;;;;;;;;;6.90;99.90;;;;;;5056239;28;20336;-71
2023/01/10 08:16:06;;;;;;;;;;;6.90;99.90;;;;;;5039438;28;19921;-70
2023/01/10 08:18:31;;;;;;;;;;;6.90;99.90;;;;;;5057203;28;19995;-72
2023/01/10 08:20:57;;;;;;;;;;;6.90;99.90;;;;;;5056636;28;20262;-71
2023/01/10 08:23:23;;;;;;;;;;;6.90;99.90;;;;;;5057560;28;19905;-71
2023/01/10 08:25:50;;;;;;;;;;;7.00;99.90;;;;;;5038670;28;20357;-72
2023/01/10 08:28:15;;;;;;;;;;;7.00;99.90;;;;;;5056058;28;19904;-72
2023/01/10 08:30:41;;;;;;;;;;;7.00;99.90;;;;;;5038016;28;19935;-72
2023/01/10 08:33:08;;;;;;;;;;;7.10;99.90;;;;;;5038121;28;19908;-72
2023/01/10 08:35:41;;;;;;;;;;;7.10;99.90;;;;;;5055758;28;19955;-73
2023/01/10 08:38:06;;;;;;;;;;;7.00;99.90;;;;;;5037214;28;19912;-72
2023/01/10 08:40:32;;;;;;;;;;;7.00;99.90;;;;;;5036883;28;20318;-71
2023/01/10 08:42:58;;;;;;;;;;;7.10;99.90;;;;;;5036738;28;19954;-72
2023/01/10 08:45:23;;;;;;;;;;;7.10;99.90;;;;;;5037175;28;19912;-72
2023/01/10 08:47:49;;;;;;;;;;;7.10;99.90;;;;;;5055663;28;19904;-71
2023/01/10 08:50:14;;;;;;;;;;;7.00;99.90;;;;;;5037979;28;19912;-72
2023/01/10 08:52:41;;;;;;;;;;;7.10;99.90;;;;;;5036092;28;19905;-72
2023/01/10 08:55:07;;;;;;;;;;;7.10;99.90;;;;;;5036393;28;20336;-71
2023/01/10 08:57:32;;;;;;;;;;;7.20;99.90;;;;;;5017936;28;19905;-72
2023/01/10 08:59:58;;;;;;;;;;;7.20;99.90;;;;;;5035747;28;19905;-71
2023/01/10 09:02:23;;;;;;;;;;;7.20;99.90;;;;;;5018171;28;20000;-71
2023/01/10 09:04:48;;;;;;;;;;;7.20;99.90;;;;;;5035995;28;20361;-71
2023/01/10 09:07:14;;;;;;;;;;;7.30;99.90;;;;;;5035765;28;20381;-71
2023/01/10 09:09:39;;;;;;;;;;;7.30;99.90;;;;;;5036048;28;20004;-71
2023/01/10 09:12:53;;;;;;;;;;;7.40;99.90;;;;;;5017953;28;20324;-72
2023/01/10 09:14:50;;;;;;;;;;;7.50;99.90;;;;;;5035377;28;19905;-72
2023/01/10 09:17:16;;;;;;;;;;;7.50;99.90;;;;;;5017037;28;20004;-72
2023/01/10 09:19:41;;;;;;;;;;;7.60;99.90;;;;;;5035464;28;19909;-72
2023/01/10 09:22:06;;;;;;;;;;;7.50;99.90;;;;;;5050369;28;20420;-72
2023/01/10 09:24:32;;;;;;;;;;;7.50;99.90;;;;;;5054939;28;20343;-71
2023/01/10 09:26:57;;;;;;;;;;;7.60;99.90;;;;;;5071148;28;19905;-73
2023/01/10 09:29:23;;;;;;;;;;;7.70;99.90;;;;;;5060565;28;19909;-72
2023/01/10 09:31:48;;;;;;;;;;;7.70;99.90;;;;;;5043026;28;19943;-73
2023/01/10 09:34:13;;;;;;;;;;;7.70;99.90;;;;;;5060797;28;19912;-71
2023/01/10 09:36:39;;;;;;;;;;;7.60;99.90;;;;;;5058285;28;19912;-72
2023/01/10 09:39:04;;;;;;;;;;;7.60;99.90;;;;;;5038136;28;19995;-71
2023/01/10 09:41:46;;;;;;;;;;;7.60;99.90;;;;;;5037249;28;19904;-71
2023/01/10 09:44:41;;;;;;;;;;;7.60;99.90;;;;;;5037887;28;19948;-73
2023/01/10 09:47:14;;;;;;;;;;;7.70;99.90;;;;;;5015692;28;20249;-71
2023/01/10 09:50:18;;;;;;;;;;;7.70;99.90;;;;;;5036670;28;19954;-72
2023/01/10 09:52:46;;;;;;;;;;;7.80;99.90;;;;;;4939142;28;19906;-71
2023/01/10 09:55:17;;;;;;;;;;;8.00;99.90;;;;;;4938598;29;19914;-71
2023/01/10 09:57:42;;;;;;;;;;;8.00;99.90;;;;;;4939913;29;19913;-72
2023/01/10 10:00:08;;;;;;;;;;;7.90;99.90;;;;;;4940799;29;19953;-72
2023/01/10 10:02:43;;;;;;;;;;;8.00;99.90;;;;;;4940259;29;19914;-71
2023/01/10 10:05:14;;;;;;;;;;;8.10;99.90;;;;;;4940202;29;19913;-71
2023/01/10 10:07:40;;;;;;;;;;;8.20;99.90;;;;;;4937800;29;20023;-72
2023/01/10 10:10:06;;;;;;;;;;;8.20;99.90;;;;;;4933436;29;19915;-72
2023/01/10 10:12:40;;;;;;;;;;;8.30;99.90;;;;;;4957738;29;19906;-72
2023/01/10 10:15:24;;;;;;;;;;;8.20;99.90;;;;;;4957179;28;20001;-72
2023/01/10 10:18:09;;;;;;;;;;;8.30;99.90;;;;;;4960093;29;20348;-71
2023/01/10 10:20:37;;;;;;;;;;;8.20;99.90;;;;;;4960217;29;19974;-71
2023/01/10 10:23:17;;;;;;;;;;;8.00;99.90;;;;;;4987828;28;19952;-71
2023/01/10 10:25:43;;;;;;;;;;;8.00;99.90;;;;;;5050954;28;19905;-71
2023/01/10 10:28:20;;;;;;;;;;;8.00;99.90;;;;;;5034756;28;19926;-71
2023/01/10 10:30:48;;;;;;;;;;;8.10;99.90;;;;;;5054010;28;19920;-72
2023/01/10 10:33:31;;;;;;;;;;;8.00;99.90;;;;;;5036091;28;19909;-72
2023/01/10 10:36:02;;;;;;;;;;;8.10;99.90;;;;;;5054116;28;20362;-72
2023/01/10 10:38:30;;;;;;;;;;;8.10;99.90;;;;;;5036146;28;19905;-72
2023/01/10 10:40:58;;;;;;;;;;;8.20;99.90;;;;;;5035991;28;19987;-71
2023/01/10 10:43:26;;;;;;;;;;;8.30;99.90;;;;;;5052794;28;20420;-71
2023/01/10 10:46:04;;;;;;;;;;;8.30;99.90;;;;;;5036718;28;19905;-71
2023/01/10 10:48:35;;;;;;;;;;;8.30;99.90;;;;;;5037026;28;19912;-72
2023/01/10 10:51:00;;;;;;;;;;;8.20;99.90;;;;;;5055004;28;20411;-71
2023/01/10 10:53:26;;;;;;;;;;;8.20;99.90;;;;;;5036749;28;19905;-72
2023/01/10 10:55:52;;;;;;;;;;;8.30;99.90;;;;;;5036079;28;19999;-72
2023/01/10 10:58:18;;;;;;;;;;;8.30;99.90;;;;;;5054420;28;19909;-72
2023/01/10 11:00:43;;;;;;;;;;;8.30;99.90;;;;;;5053319;28;19909;-72
2023/01/10 11:03:12;;;;;;;;;;;8.30;99.90;;;;;;5036256;28;19927;-71
2023/01/10 11:05:40;;;;;;;;;;;8.40;99.90;;;;;;5055395;28;20050;-71
2023/01/10 11:08:12;;;;;;;;;;;8.40;99.90;;;;;;5041354;28;19962;-72
2023/01/10 11:10:39;;;;;;;;;;;8.40;99.90;;;;;;5040901;28;19930;-71
2023/01/10 11:13:12;;;;;;;;;;;8.50;99.90;;;;;;5058250;28;19953;-71
2023/01/10 11:15:45;;;;;;;;;;;8.60;99.90;;;;;;5060133;28;19930;-72
2023/01/10 11:18:12;;;;;;;;;;;8.60;99.90;;;;;;5041222;28;20176;-72
2023/01/10 11:20:46;;;;;;;;;;;8.60;99.90;;;;;;5060254;28;19905;-72
2023/01/10 11:23:20;;;;;;;;;;;8.70;99.90;;;;;;5039599;28;19927;-71
2023/01/10 11:25:48;;;;;;;;;;;8.70;99.90;;;;;;5026310;28;20254;-72
2023/01/10 11:28:15;;;;;;;;;;;8.60;99.90;;;;;;5055625;28;19904;-71
2023/01/10 11:30:45;;;;;;;;;;;8.60;99.90;;;;;;5059762;28;19912;-71
2023/01/10 11:33:18;;;;;;;;;;;8.80;99.90;;;;;;5059311;28;19905;-72
2023/01/10 11:35:55;;;;;;;;;;;8.80;99.90;;;;;;5030130;23;20016;-70
2023/01/10 11:38:23;;;;;;;;;;;9.00;99.90;;;;;;5023178;28;19916;-70
2023/01/10 11:40:53;;;;;;;;;;;9.00;99.90;;;;;;5016533;28;19913;-70
2023/01/10 11:43:26;;;;;;;;;;;8.90;99.90;;;;;;5024828;28;19910;-70
2023/01/10 11:45:53;;;;;;;;;;;8.90;99.90;;;;;;5023385;28;20301;-71
2023/01/10 11:48:23;;;;;;;;;;;8.80;99.90;;;;;;5022815;28;19917;-70
2023/01/10 11:50:50;;;;;;;;;;;8.80;99.90;;;;;;5026637;28;20332;-70
2023/01/10 11:53:29;;;;;;;;;;;8.80;99.90;;;;;;5018321;28;19905;-71
2023/01/10 11:55:55;;;;;;;;;;;8.80;99.90;;;;;;5017501;28;19952;-71
2023/01/10 11:58:21;;;;;;;;;;;8.70;99.90;;;;;;5035600;28;19904;-70
2023/01/10 12:00:47;;;;;;;;;;;8.70;99.90;;;;;;5036004;28;19979;-71
2023/01/10 12:03:14;;;;;;;;;;;8.70;99.90;;;;;;5028188;28;20301;-71
2023/01/10 12:05:40;;;;;;;;;;;8.80;99.90;;;;;;5038985;28;19935;-70
2023/01/10 12:08:08;;;;;;;;;;;8.80;99.90;;;;;;5034595;28;19958;-71
2023/01/10 12:10:34;;;;;;;;;;;8.80;99.90;;;;;;5036295;28;19916;-71
2023/01/10 12:13:11;;;;;;;;;;;8.80;99.90;;;;;;5018979;28;19905;-71
2023/01/10 12:15:37;;;;;;;;;;;8.80;99.90;;;;;;5021083;28;19912;-71
2023/01/10 12:18:03;;;;;;;;;;;8.80;99.90;;;;;;5037790;28;20268;-70
2023/01/10 12:20:31;;;;;;;;;;;8.90;99.90;;;;;;5054077;28;19924;-70
2023/01/10 12:22:58;;;;;;;;;;;9.00;99.90;;;;;;5054954;28;19908;-69
2023/01/10 12:25:31;;;;;;;;;;;9.00;99.90;;;;;;5034186;28;20004;-69
2023/01/10 12:27:58;;;;;;;;;;;9.10;99.90;;;;;;5017091;28;19931;-70
2023/01/10 12:30:30;;;;;;;;;;;9.10;99.90;;;;;;5035872;28;19955;-70
2023/01/10 12:32:57;;;;;;;;;;;9.00;99.90;;;;;;5017488;28;20269;-70
2023/01/10 12:35:41;;;;;;;;;;;9.00;99.90;;;;;;5052202;28;20318;-70
2023/01/10 12:39:01;;;;;;;;;;;9.00;99.90;;;;;;5046801;28;20349;-71
2023/01/10 12:41:07;;;;;;;;;;;9.00;99.90;;;;;;5075995;28;19911;-69
2023/01/10 12:46:22;;;;;;;;;;;9.10;99.90;;;;;;5059407;28;19911;-71
2023/01/10 12:48:54;;;;;;;;;;;9.10;99.90;;;;;;5063991;28;19962;-70
2023/01/10 12:51:22;;;;;;;;;;;9.20;99.90;;;;;;5065005;28;19908;-69
2023/01/10 12:53:50;;;;;;;;;;;9.20;99.90;;;;;;5045089;28;19955;-69
2023/01/10 12:56:17;;;;;;;;;;;9.20;99.90;;;;;;5043017;28;19978;-69
2023/01/10 12:58:45;;;;;;;;;;;9.00;99.90;;;;;;5052689;28;19909;-70
2023/01/10 13:01:16;;;;;;;;;;;9.00;99.90;;;;;;5045307;28;19909;-69
2023/01/10 13:03:42;;;;;;;;;;;8.90;99.90;;;;;;5041615;28;19908;-70
2023/01/10 13:06:10;;;;;;;;;;;9.00;99.90;;;;;;5039031;28;19909;-70
2023/01/10 13:08:37;;;;;;;;;;;9.10;99.90;;;;;;5058496;28;19947;-71
2023/01/10 13:11:03;;;;;;;;;;;9.20;99.90;;;;;;5062179;28;19909;-70
2023/01/10 13:13:37;;;;;;;;;;;9.20;99.90;;;;;;5046031;28;20313;-71
2023/01/10 13:16:22;;;;;;;;;;;9.20;99.90;;;;;;5045583;28;19950;-73
2023/01/10 13:19:02;;;;;;;;;;;9.30;99.90;;;;;;5045318;28;20285;-71
2023/01/10 13:21:31;;;;;;;;;;;9.30;99.90;;;;;;5045213;28;19908;-71
2023/01/10 13:24:18;;;;;;;;;;;9.30;99.90;;;;;;5045322;28;19908;-71
2023/01/10 13:26:51;;;;;;;;;;;9.30;99.90;;;;;;5044403;28;19954;-71
2023/01/10 13:29:18;;;;;;;;;;;9.20;99.90;;;;;;5043702;28;19919;-71
2023/01/10 13:31:44;;;;;;;;;;;9.20;99.90;;;;;;5065624;28;19955;-71
2023/01/10 13:34:11;;;;;;;;;;;9.30;99.90;;;;;;5067184;28;19915;-71
2023/01/10 13:36:38;;;;;;;;;;;9.20;99.90;;;;;;5061675;28;19909;-71
2023/01/10 13:39:07;;;;;;;;;;;9.10;99.90;;;;;;5042912;28;19905;-70
2023/01/10 13:44:55;;;;;;;;;;;9.10;99.90;;;;;;5058069;28;20011;-69
2023/01/10 13:47:38;;;;;;;;;;;9.00;99.90;;;;;;5055402;28;19975;-69
2023/01/10 13:50:45;;;;;;;;;;;9.00;99.90;;;;;;5027905;28;19921;-72
2023/01/10 13:53:11;;;;;;;;;;;8.90;99.90;;;;;;5049396;28;20412;-71
2023/01/10 13:55:46;;;;;;;;;;;8.90;99.90;;;;;;5040161;28;19905;-70
2023/01/10 13:58:12;;;;;;;;;;;8.90;99.90;;;;;;5045956;28;19905;-70
2023/01/10 14:03:48;;;;;;;;;;;9.00;99.90;;;;;;5042757;28;19912;-70
2023/01/10 14:06:13;;;;;;;;;;;9.00;99.90;;;;;;5032519;28;19909;-70
2023/01/10 14:08:40;;;;;;;;;;;9.00;99.90;;;;;;5036640;28;19908;-70
2023/01/10 14:11:12;;;;;;;;;;;9.00;99.90;;;;;;5036709;28;19905;-69
2023/01/10 14:13:37;;;;;;;;;;;8.90;99.90;;;;;;5033959;28;19909;-69
2023/01/10 14:16:05;;;;;;;;;;;9.00;99.90;;;;;;5035145;28;19955;-69
2023/01/10 14:18:38;;;;;;;;;;;9.00;99.90;;;;;;5016752;28;19999;-69
2023/01/10 14:21:07;;;;;;;;;;;9.00;99.90;;;;;;5034388;28;20000;-70
2023/01/10 14:23:34;;;;;;;;;;;9.00;99.90;;;;;;5031456;28;20329;-70
2023/01/10 14:26:00;;;;;;;;;;;8.90;99.90;;;;;;5053329;28;20340;-70
2023/01/10 14:28:27;;;;;;;;;;;8.90;99.90;;;;;;5035103;28;19948;-69
2023/01/10 14:30:57;;;;;;;;;;;8.90;99.90;;;;;;5034558;28;19909;-70
2023/01/10 14:33:23;;;;;;;;;;;8.80;99.90;;;;;;5018027;28;19920;-68
2023/01/10 14:35:51;;;;;;;;;;;8.80;99.90;;;;;;5032769;28;19923;-69
2023/01/10 14:38:25;;;;;;;;;;;8.80;99.90;;;;;;5051577;28;19909;-69
2023/01/10 14:40:53;;;;;;;;;;;8.80;99.90;;;;;;5015583;28;19936;-69
2023/01/10 14:43:21;;;;;;;;;;;8.90;99.90;;;;;;5041353;28;19909;-71
2023/01/10 14:45:50;;;;;;;;;;;8.90;99.90;;;;;;5035147;28;19904;-70
2023/01/10 14:48:27;;;;;;;;;;;8.90;99.90;;;;;;5034684;28;19904;-69
2023/01/10 14:51:05;;;;;;;;;;;8.80;99.90;;;;;;5052709;28;19909;-67
2023/01/10 14:53:30;;;;;;;;;;;8.90;99.90;;;;;;5053383;28;19905;-67
2023/01/10 14:55:56;;;;;;;;;;;8.90;99.90;;;;;;5052247;28;19911;-66